Time;durP1;ratioP1;P1;durP2;ratioP2;P2;SDS_P1;SDS_P2;PMS_P1;PMS_P2;Temp;Humidity;BMP_temperature;BMP_pressure;BME280_temperature;BME280_humidity;BME280_pressure;Samples;Min_cycle;Max_cycle;Signal;HPM_P1;HPM_P2
2022/10/26 00:01:12;;;;;;;6.70;4.50;;;6.20;99.90;;;;;;5056786;28;20082;-70
2022/10/26 00:03:41;;;;;;;5.70;3.55;;;6.20;99.90;;;;;;5057661;28;20266;-70
2022/10/26 00:06:13;;;;;;;9.68;3.80;;;6.10;99.90;;;;;;5056603;28;20103;-70
2022/10/26 00:08:40;;;;;;;7.78;4.35;;;6.10;99.90;;;;;;5056477;28;20542;-70
2022/10/26 00:11:08;;;;;;;7.63;4.28;;;6.10;99.90;;;;;;5057231;28;20036;-70
2022/10/26 00:13:35;;;;;;;8.38;4.72;;;6.10;99.90;;;;;;5056405;28;20104;-70
2022/10/26 00:16:16;;;;;;;13.15;5.15;;;6.10;99.90;;;;;;5056532;28;20013;-70
2022/10/26 00:18:45;;;;;;;10.98;4.53;;;6.20;99.90;;;;;;5056436;28;20045;-70
2022/10/26 00:21:13;;;;;;;8.65;4.53;;;6.20;99.90;;;;;;5056586;28;20021;-70
2022/10/26 00:23:40;;;;;;;8.93;3.97;;;6.20;99.90;;;;;;5055282;28;20421;-70
2022/10/26 00:26:08;;;;;;;11.80;4.57;;;6.20;99.90;;;;;;5056908;28;20328;-70
2022/10/26 00:28:36;;;;;;;12.25;4.85;;;6.20;99.90;;;;;;5058769;28;20102;-70
2022/10/26 00:31:05;;;;;;;17.33;4.72;;;6.20;99.90;;;;;;5060665;28;20017;-70
2022/10/26 00:33:33;;;;;;;10.88;4.47;;;6.10;99.90;;;;;;5060444;28;20401;-70
2022/10/26 00:36:00;;;;;;;9.13;4.07;;;6.10;99.90;;;;;;5060414;28;20029;-70
2022/10/26 00:38:28;;;;;;;10.18;4.25;;;6.20;99.90;;;;;;5060326;28;20056;-70
2022/10/26 00:40:55;;;;;;;9.18;4.30;;;6.20;99.90;;;;;;5060507;28;20048;-70
2022/10/26 00:43:23;;;;;;;8.98;4.28;;;6.20;99.90;;;;;;5060268;28;20025;-70
2022/10/26 00:45:53;;;;;;;7.10;4.13;;;6.20;99.90;;;;;;5060268;28;20025;-70
2022/10/26 00:48:29;;;;;;;10.30;4.80;;;6.20;99.90;;;;;;5060397;28;20053;-70
2022/10/26 00:51:03;;;;;;;7.28;3.80;;;6.20;99.90;;;;;;5060264;28;20025;-70
2022/10/26 00:53:32;;;;;;;6.93;4.05;;;6.20;99.90;;;;;;5060027;28;20021;-70
2022/10/26 00:56:01;;;;;;;8.40;3.90;;;6.10;99.90;;;;;;5075073;28;20044;-70
2022/10/26 00:58:29;;;;;;;10.80;5.30;;;6.20;99.90;;;;;;5080700;28;20296;-70
2022/10/26 01:00:56;;;;;;;13.35;5.38;;;6.20;99.90;;;;;;5080110;28;20021;-70
2022/10/26 01:03:24;;;;;;;10.10;4.93;;;6.10;99.90;;;;;;5079888;28;20028;-70
2022/10/26 01:05:56;;;;;;;11.45;5.35;;;6.20;99.90;;;;;;5079853;28;20052;-70
2022/10/26 01:08:25;;;;;;;11.43;3.90;;;6.20;99.90;;;;;;5079714;28;20043;-70
2022/10/26 01:10:52;;;;;;;9.20;4.35;;;6.20;99.90;;;;;;5080384;28;20414;-70
2022/10/26 01:13:20;;;;;;;10.20;4.47;;;6.20;99.90;;;;;;5080256;28;20100;-70
2022/10/26 01:16:15;;;;;;;8.70;3.92;;;6.10;99.90;;;;;;5079557;28;20162;-70
2022/10/26 01:19:15;;;;;;;7.63;4.05;;;6.10;99.90;;;;;;5079864;28;20368;-70
2022/10/26 01:21:59;;;;;;;7.75;3.65;;;6.10;99.90;;;;;;5079973;28;20021;-70
2022/10/26 01:24:52;;;;;;;13.68;4.78;;;6.10;99.90;;;;;;5080300;28;20033;-70
2022/10/26 01:27:36;;;;;;;13.88;5.07;;;6.10;99.90;;;;;;5079626;28;20025;-70
2022/10/26 01:30:44;;;;;;;10.15;3.70;;;6.00;99.90;;;;;;5079708;28;20028;-70
2022/10/26 01:33:37;;;;;;;13.52;3.53;;;6.00;99.90;;;;;;5079607;28;20021;-69
2022/10/26 01:36:21;;;;;;;6.55;4.05;;;6.00;99.90;;;;;;5061545;28;20069;-70
2022/10/26 01:39:11;;;;;;;6.78;3.35;;;6.00;99.90;;;;;;5079322;28;20371;-70
2022/10/26 01:41:49;;;;;;;10.35;4.72;;;6.00;99.90;;;;;;5079643;28;20427;-70
2022/10/26 01:44:29;;;;;;;12.73;4.68;;;6.00;99.90;;;;;;5079088;28;20440;-70
2022/10/26 01:46:59;;;;;;;23.00;4.55;;;6.00;99.90;;;;;;5079686;28;20395;-70
2022/10/26 01:49:32;;;;;;;22.88;4.95;;;6.00;99.90;;;;;;5078980;28;20021;-70
2022/10/26 01:51:59;;;;;;;56.85;5.28;;;6.10;99.90;;;;;;5079260;28;20013;-70
2022/10/26 01:54:28;;;;;;;24.48;5.45;;;6.10;99.90;;;;;;5079243;28;20462;-70
2022/10/26 01:57:01;;;;;;;58.72;7.53;;;6.20;99.90;;;;;;5079562;28;20059;-70
2022/10/26 01:59:48;;;;;;;38.92;6.72;;;6.20;99.90;;;;;;5079108;28;20025;-70
2022/10/26 02:02:27;;;;;;;12.05;4.90;;;6.20;99.90;;;;;;5079131;28;20082;-70
2022/10/26 02:05:32;;;;;;;23.88;5.68;;;6.20;99.90;;;;;;5077698;28;20086;-69
2022/10/26 02:08:24;;;;;;;10.80;4.10;;;6.20;99.90;;;;;;5078937;28;20029;-70
2022/10/26 02:11:12;;;;;;;13.30;4.57;;;6.20;99.90;;;;;;5079417;28;20020;-70
2022/10/26 02:13:52;;;;;;;19.55;5.07;;;6.20;99.90;;;;;;5079057;28;20047;-70
2022/10/26 02:16:47;;;;;;;85.85;6.85;;;6.20;99.90;;;;;;5079139;28;20019;-70
2022/10/26 02:19:53;;;;;;;20.55;3.90;;;6.20;99.90;;;;;;5079047;28;20443;-70
2022/10/26 02:22:34;;;;;;;23.70;3.78;;;6.30;99.90;;;;;;5070733;28;20068;-70
2022/10/26 02:25:11;;;;;;;25.42;3.80;;;6.30;99.90;;;;;;5078437;28;20103;-70
2022/10/26 02:27:46;;;;;;;16.05;4.35;;;6.30;99.90;;;;;;5078265;28;20021;-70
2022/10/26 02:30:13;;;;;;;16.75;4.32;;;6.30;99.90;;;;;;5078403;28;20431;-70
2022/10/26 02:32:46;;;;;;;26.80;4.50;;;6.30;99.90;;;;;;5060422;28;20394;-70
2022/10/26 02:35:19;;;;;;;54.80;7.63;;;6.30;99.90;;;;;;5078200;28;20417;-70
2022/10/26 02:37:47;;;;;;;18.52;3.30;;;6.30;99.90;;;;;;5078135;28;20439;-70
2022/10/26 02:40:19;;;;;;;62.75;5.55;;;6.30;99.90;;;;;;5078563;28;20027;-70
2022/10/26 02:42:51;;;;;;;13.32;3.50;;;6.30;99.90;;;;;;5060280;28;20476;-69
2022/10/26 02:45:25;;;;;;;13.95;4.63;;;6.30;99.90;;;;;;5077868;28;20036;-69
2022/10/26 02:47:55;;;;;;;76.47;8.10;;;6.30;99.90;;;;;;5060092;28;20078;-70
2022/10/26 02:50:31;;;;;;;28.65;4.60;;;6.30;99.90;;;;;;5078247;28;20021;-70
2022/10/26 02:53:06;;;;;;;54.65;6.65;;;6.20;99.90;;;;;;5078221;28;20342;-70
2022/10/26 02:55:57;;;;;;;21.08;4.78;;;6.20;99.90;;;;;;5077849;28;20036;-70
2022/10/26 02:58:33;;;;;;;18.27;4.18;;;6.20;99.90;;;;;;5077749;28;20020;-70
2022/10/26 03:01:00;;;;;;;52.33;7.10;;;6.20;99.90;;;;;;5077913;28;20025;-70
2022/10/26 03:03:27;;;;;;;25.83;5.30;;;6.20;99.90;;;;;;5077635;28;20074;-70
2022/10/26 03:05:55;;;;;;;13.77;4.85;;;6.20;99.90;;;;;;5077673;28;20048;-70
2022/10/26 03:08:23;;;;;;;9.70;4.55;;;6.20;99.90;;;;;;5059732;28;20032;-70
2022/10/26 03:10:50;;;;;;;15.05;4.95;;;6.20;99.90;;;;;;5043291;28;20442;-70
2022/10/26 03:13:17;;;;;;;9.38;4.57;;;6.30;99.90;;;;;;5077970;28;20056;-70
2022/10/26 03:15:44;;;;;;;17.27;5.70;;;6.20;99.90;;;;;;5077535;28;20025;-70
2022/10/26 03:18:12;;;;;;;18.50;5.20;;;6.30;99.90;;;;;;5077373;28;20097;-70
2022/10/26 03:20:40;;;;;;;9.18;4.35;;;6.30;99.90;;;;;;5059899;28;20035;-69
2022/10/26 03:23:07;;;;;;;11.32;4.47;;;6.30;99.90;;;;;;5077252;28;20025;-70
2022/10/26 03:25:34;;;;;;;14.90;5.13;;;6.30;99.90;;;;;;5077245;28;20024;-70
2022/10/26 03:28:03;;;;;;;15.20;5.63;;;6.30;99.90;;;;;;5077651;28;20021;-70
2022/10/26 03:30:31;;;;;;;19.80;5.57;;;6.30;99.90;;;;;;5077474;28;20021;-70
2022/10/26 03:32:59;;;;;;;39.22;6.38;;;6.30;99.90;;;;;;5077061;28;20017;-70
2022/10/26 03:35:26;;;;;;;17.55;5.38;;;6.30;99.90;;;;;;5077627;28;20090;-70
2022/10/26 03:37:53;;;;;;;21.30;5.32;;;6.30;99.90;;;;;;5059246;28;20090;-70
2022/10/26 03:40:21;;;;;;;17.38;5.47;;;6.30;99.90;;;;;;5077125;28;20111;-70
2022/10/26 03:42:48;;;;;;;25.60;5.20;;;6.30;99.90;;;;;;5077168;28;20027;-70
2022/10/26 03:45:16;;;;;;;82.85;6.97;;;6.30;99.90;;;;;;5077032;28;20323;-70
2022/10/26 03:47:46;;;;;;;38.72;5.53;;;6.30;99.90;;;;;;5076696;28;20424;-70
2022/10/26 03:50:17;;;;;;;75.82;6.47;;;6.30;99.90;;;;;;5076961;28;20025;-69
2022/10/26 03:52:47;;;;;;;25.25;4.88;;;6.20;99.90;;;;;;5076735;28;20024;-70
2022/10/26 03:55:15;;;;;;;52.28;5.88;;;6.20;99.90;;;;;;5076548;28;20123;-70
2022/10/26 03:57:43;;;;;;;36.70;5.45;;;6.20;99.90;;;;;;5059691;28;20371;-70
2022/10/26 04:00:17;;;;;;;58.08;5.50;;;6.10;99.90;;;;;;5076907;28;20379;-70
2022/10/26 04:02:53;;;;;;;59.28;8.35;;;6.10;99.90;;;;;;5075938;28;20388;-70
2022/10/26 04:05:20;;;;;;;16.80;4.80;;;6.10;99.90;;;;;;5077237;28;20059;-70
2022/10/26 04:07:55;;;;;;;42.22;6.07;;;6.00;99.90;;;;;;5076510;28;20028;-70
2022/10/26 04:10:23;;;;;;;12.55;5.55;;;6.00;99.90;;;;;;5077295;28;20044;-70
2022/10/26 04:12:51;;;;;;;14.82;5.00;;;6.00;99.90;;;;;;5076584;28;20024;-70
2022/10/26 04:15:19;;;;;;;18.92;5.35;;;6.00;99.90;;;;;;5076601;28;20021;-70
2022/10/26 04:17:47;;;;;;;30.25;5.55;;;6.00;99.90;;;;;;5076555;28;20036;-70
2022/10/26 04:20:14;;;;;;;26.45;6.57;;;5.90;99.90;;;;;;5076685;28;20024;-70
2022/10/26 04:22:42;;;;;;;28.42;7.43;;;5.90;99.90;;;;;;5076406;28;20028;-70
2022/10/26 04:25:12;;;;;;;20.48;5.97;;;5.90;99.90;;;;;;5076473;28;20416;-70
2022/10/26 04:27:39;;;;;;;46.63;7.05;;;5.90;99.90;;;;;;5076118;28;20029;-70
2022/10/26 04:30:08;;;;;;;29.10;6.90;;;6.00;99.90;;;;;;5076497;28;20178;-70
2022/10/26 04:32:35;;;;;;;19.77;6.38;;;6.00;99.90;;;;;;5076403;28;20058;-70
2022/10/26 04:35:03;;;;;;;25.52;8.00;;;6.00;99.90;;;;;;5076319;28;20366;-70
2022/10/26 04:37:31;;;;;;;25.92;7.53;;;6.00;99.90;;;;;;5076319;28;20025;-70
2022/10/26 04:39:58;;;;;;;16.15;7.03;;;6.10;99.90;;;;;;5058586;28;20020;-70
2022/10/26 04:42:25;;;;;;;26.67;7.88;;;6.10;99.90;;;;;;5076808;28;20143;-70
2022/10/26 04:44:53;;;;;;;37.38;7.75;;;6.20;99.90;;;;;;5076474;28;20021;-70
2022/10/26 04:47:20;;;;;;;17.73;7.22;;;6.20;99.90;;;;;;5076288;28;20323;-70
2022/10/26 04:49:49;;;;;;;19.88;8.38;;;6.20;99.90;;;;;;5076837;28;20324;-70
2022/10/26 04:52:16;;;;;;;23.50;6.18;;;6.20;99.90;;;;;;5076758;28;20017;-70
2022/10/26 04:54:43;;;;;;;15.43;6.18;;;6.20;99.90;;;;;;5076080;28;20067;-70
2022/10/26 04:57:10;;;;;;;20.83;6.57;;;6.10;99.90;;;;;;5076143;28;20021;-70
2022/10/26 04:59:38;;;;;;;18.73;7.60;;;6.10;99.90;;;;;;5076053;28;20384;-70
2022/10/26 05:02:06;;;;;;;21.50;7.10;;;6.10;99.90;;;;;;5058967;28;20469;-70
2022/10/26 05:04:33;;;;;;;22.75;7.85;;;6.10;99.90;;;;;;5076202;28;20032;-70
2022/10/26 05:07:00;;;;;;;37.80;6.32;;;6.00;99.90;;;;;;5058270;28;20028;-70
2022/10/26 05:09:28;;;;;;;15.63;6.20;;;6.00;99.90;;;;;;5075983;28;20099;-69
2022/10/26 05:11:55;;;;;;;16.20;5.38;;;6.00;99.90;;;;;;5075980;28;20319;-70
2022/10/26 05:14:23;;;;;;;15.68;4.97;;;5.90;99.90;;;;;;5060661;28;20016;-70
2022/10/26 05:16:54;;;;;;;11.18;5.90;;;5.80;99.90;;;;;;5080246;28;20017;-70
2022/10/26 05:19:22;;;;;;;72.60;7.13;;;5.80;99.90;;;;;;5079591;28;20408;-70
2022/10/26 05:21:52;;;;;;;41.05;7.32;;;5.70;99.90;;;;;;5079450;28;20060;-70
2022/10/26 05:24:20;;;;;;;10.85;5.93;;;5.70;99.90;;;;;;5079712;28;20423;-70
2022/10/26 05:26:47;;;;;;;32.58;6.10;;;5.70;99.90;;;;;;5079473;28;20024;-70
2022/10/26 05:29:16;;;;;;;37.72;6.32;;;5.70;99.90;;;;;;5079520;28;20031;-70
2022/10/26 05:31:43;;;;;;;116.22;10.98;;;5.70;99.90;;;;;;5079992;28;20056;-70
2022/10/26 05:34:10;;;;;;;19.23;6.50;;;5.60;99.90;;;;;;5080052;28;20024;-70
2022/10/26 05:36:37;;;;;;;34.35;7.60;;;5.60;99.90;;;;;;5078198;28;20096;-70
2022/10/26 05:39:05;;;;;;;18.55;7.10;;;5.60;99.90;;;;;;5078203;28;20039;-70
2022/10/26 05:41:32;;;;;;;23.02;6.78;;;5.60;99.90;;;;;;5079252;28;20024;-70
2022/10/26 05:43:59;;;;;;;13.20;6.75;;;5.70;99.90;;;;;;5079651;28;20024;-70
2022/10/26 05:46:28;;;;;;;16.80;7.07;;;5.70;99.90;;;;;;5079286;28;20060;-70
2022/10/26 05:48:55;;;;;;;14.55;5.90;;;5.70;99.90;;;;;;5079323;28;20074;-70
2022/10/26 05:51:23;;;;;;;13.90;6.55;;;5.70;99.90;;;;;;5079138;28;20024;-68
2022/10/26 05:53:53;;;;;;;14.68;7.05;;;5.70;99.90;;;;;;5079227;28;20028;-70
2022/10/26 05:56:34;;;;;;;12.18;6.22;;;5.70;99.90;;;;;;5079045;28;20064;-70
2022/10/26 05:59:03;;;;;;;11.43;6.38;;;5.80;99.90;;;;;;5079789;28;20378;-70
2022/10/26 06:01:51;;;;;;;13.18;7.40;;;5.80;99.90;;;;;;5078912;28;20024;-73
2022/10/26 06:04:42;;;;;;;14.27;6.53;;;5.80;99.90;;;;;;5079282;28;20029;-74
2022/10/26 06:07:15;;;;;;;13.00;6.50;;;5.90;99.90;;;;;;5078806;28;20020;-75
2022/10/26 06:09:43;;;;;;;14.10;6.80;;;5.90;99.90;;;;;;5060979;28;20028;-78
2022/10/26 06:12:11;;;;;;;13.48;6.72;;;6.00;99.90;;;;;;5078667;28;20354;-77
2022/10/26 06:14:39;;;;;;;14.77;6.72;;;6.00;99.90;;;;;;5078983;28;20075;-77
2022/10/26 06:17:25;;;;;;;14.38;7.10;;;6.00;99.90;;;;;;5078602;28;20020;-74
2022/10/26 06:20:15;;;;;;;14.45;5.78;;;6.10;99.90;;;;;;5078887;28;20293;-76
2022/10/26 06:22:51;;;;;;;14.15;6.30;;;6.10;99.90;;;;;;5078494;28;20020;-76
2022/10/26 06:25:28;;;;;;;14.55;5.60;;;6.10;99.90;;;;;;5060158;28;20446;-76
2022/10/26 06:28:11;;;;;;;14.57;6.68;;;6.20;99.90;;;;;;5078578;28;20102;-76
2022/10/26 06:30:40;;;;;;;11.73;5.70;;;6.20;99.90;;;;;;5078320;28;20047;-77
2022/10/26 06:33:11;;;;;;;15.00;5.70;;;6.30;99.90;;;;;;5060540;28;20024;-77
2022/10/26 06:35:58;;;;;;;14.20;6.70;;;6.30;99.90;;;;;;5078708;28;20501;-74
2022/10/26 06:38:29;;;;;;;12.05;6.18;;;6.40;99.90;;;;;;5079523;28;20039;-74
2022/10/26 06:41:03;;;;;;;12.75;5.55;;;6.50;99.90;;;;;;5078780;28;20099;-74
2022/10/26 06:43:34;;;;;;;10.25;6.03;;;6.60;99.90;;;;;;5078201;28;20086;-75
2022/10/26 06:46:11;;;;;;;11.63;5.93;;;6.70;99.90;;;;;;5078740;28;20071;-76
2022/10/26 06:49:03;;;;;;;11.32;5.47;;;6.80;99.90;;;;;;5060114;28;20112;-75
2022/10/26 06:51:47;;;;;;;11.15;4.68;;;6.90;99.90;;;;;;5078155;28;20404;-78
2022/10/26 06:54:29;;;;;;;10.88;5.38;;;7.10;99.90;;;;;;5077596;28;20078;-78
2022/10/26 06:56:57;;;;;;;11.95;5.53;;;7.20;99.90;;;;;;5078318;28;20035;-76
2022/10/26 06:59:46;;;;;;;11.00;6.35;;;7.40;99.90;;;;;;5078207;28;20020;-76
2022/10/26 07:02:14;;;;;;;17.48;6.50;;;7.50;99.90;;;;;;5077921;28;20047;-76
2022/10/26 07:04:43;;;;;;;12.63;6.10;;;7.60;99.90;;;;;;5077651;28;20025;-76
2022/10/26 07:07:24;;;;;;;11.88;6.10;;;7.70;99.90;;;;;;5060078;28;20356;-75
2022/10/26 07:09:52;;;;;;;9.30;5.45;;;7.80;99.90;;;;;;5077612;28;20078;-77
2022/10/26 07:12:19;;;;;;;9.68;5.43;;;7.80;99.90;;;;;;5059703;28;20035;-74
2022/10/26 07:14:47;;;;;;;8.57;5.53;;;7.80;99.90;;;;;;5077389;28;20020;-74
2022/10/26 07:17:15;;;;;;;10.05;5.78;;;8.00;99.90;;;;;;5077648;28;20059;-74
2022/10/26 07:19:43;;;;;;;9.23;5.00;;;8.00;99.90;;;;;;5077536;28;20051;-73
2022/10/26 07:22:11;;;;;;;8.75;5.07;;;8.10;99.90;;;;;;5077833;28;20078;-74
2022/10/26 07:24:38;;;;;;;8.88;4.95;;;8.20;99.90;;;;;;5077279;28;20051;-74
2022/10/26 07:27:06;;;;;;;9.57;5.32;;;8.30;99.90;;;;;;5077741;28;20020;-73
2022/10/26 07:29:34;;;;;;;8.18;4.53;;;8.40;99.90;;;;;;5076487;28;20162;-75
2022/10/26 07:32:01;;;;;;;10.52;3.92;;;8.40;99.90;;;;;;5076995;28;20024;-75
2022/10/26 07:34:29;;;;;;;9.27;3.72;;;8.60;99.90;;;;;;5077108;28;20090;-74
2022/10/26 07:36:58;;;;;;;13.35;4.03;;;8.90;99.90;;;;;;5059272;28;20459;-74
2022/10/26 07:39:25;;;;;;;10.73;4.25;;;9.10;99.90;;;;;;5077188;28;20363;-77
2022/10/26 07:41:53;;;;;;;7.32;3.50;;;9.30;99.90;;;;;;5059178;28;20078;-74
2022/10/26 07:44:20;;;;;;;8.73;3.17;;;9.50;99.90;;;;;;5077040;28;20107;-74
2022/10/26 07:46:47;;;;;;;12.25;3.47;;;9.70;99.90;;;;;;5076861;28;20038;-74
2022/10/26 07:49:14;;;;;;;10.48;3.10;;;9.70;99.90;;;;;;5076929;28;20024;-74
2022/10/26 07:51:42;;;;;;;6.88;3.15;;;9.80;99.90;;;;;;5076770;28;20040;-75
2022/10/26 07:54:09;;;;;;;8.02;3.40;;;10.00;99.90;;;;;;5075729;28;20021;-74
2022/10/26 07:56:37;;;;;;;9.57;3.67;;;10.10;99.90;;;;;;5076391;28;20048;-74
2022/10/26 07:59:04;;;;;;;11.88;3.75;;;10.20;99.90;;;;;;5077199;28;20024;-78
2022/10/26 08:01:32;;;;;;;12.73;3.33;;;10.30;99.90;;;;;;5077062;28;20023;-75
2022/10/26 08:03:59;;;;;;;4.97;2.60;;;10.50;99.90;;;;;;5076639;28;20025;-75
2022/10/26 08:06:27;;;;;;;5.45;2.47;;;10.60;99.90;;;;;;5077761;28;20354;-74
2022/10/26 08:08:54;;;;;;;7.93;2.42;;;10.80;99.90;;;;;;5076786;28;20424;-74
2022/10/26 08:11:21;;;;;;;7.72;2.25;;;11.00;99.90;;;;;;5077151;28;20020;-74
2022/10/26 08:13:53;;;;;;;7.72;2.40;;;11.10;99.90;;;;;;5076466;28;20040;-75
2022/10/26 08:16:22;;;;;;;7.60;2.40;;;11.20;99.90;;;;;;5076965;28;20078;-75
2022/10/26 08:18:50;;;;;;;5.80;1.85;;;11.30;99.90;;;;;;5076472;28;20021;-71
2022/10/26 08:21:17;;;;;;;7.93;1.70;;;11.40;99.90;;;;;;5077072;28;20028;-71
2022/10/26 08:23:45;;;;;;;6.07;1.98;;;11.50;99.90;;;;;;5077019;28;20032;-72
2022/10/26 08:26:13;;;;;;;5.45;1.80;;;11.60;99.90;;;;;;5076663;28;20025;-71
2022/10/26 08:28:41;;;;;;;8.02;1.80;;;11.70;99.90;;;;;;5076818;28;20035;-72
2022/10/26 08:31:08;;;;;;;6.10;1.40;;;11.70;99.90;;;;;;5076953;28;20020;-72
2022/10/26 08:33:36;;;;;;;5.38;1.83;;;11.70;99.90;;;;;;5076768;28;20021;-71
2022/10/26 08:36:05;;;;;;;9.98;2.33;;;11.60;99.90;;;;;;5077121;28;20028;-71
2022/10/26 08:38:32;;;;;;;4.20;2.63;;;11.60;99.90;;;;;;5058605;28;20071;-73
2022/10/26 08:41:11;;;;;;;8.82;1.83;;;11.60;99.90;;;;;;5076584;28;20021;-72
2022/10/26 08:43:46;;;;;;;7.55;1.92;;;11.50;99.90;;;;;;5076436;28;20017;-72
2022/10/26 08:46:24;;;;;;;6.13;1.90;;;11.50;99.90;;;;;;5076456;28;20025;-72
2022/10/26 08:48:59;;;;;;;6.30;2.20;;;11.60;99.90;;;;;;5076873;28;20035;-72
2022/10/26 08:51:36;;;;;;;7.03;2.08;;;11.60;99.90;;;;;;5080206;28;20485;-72
2022/10/26 08:54:16;;;;;;;4.78;2.15;;;11.60;99.90;;;;;;5080121;28;20032;-71
2022/10/26 08:56:58;;;;;;;8.52;1.55;;;11.70;99.90;;;;;;5080880;28;20455;-71
2022/10/26 08:59:36;;;;;;;6.00;1.70;;;11.80;99.90;;;;;;5080218;28;20335;-71
2022/10/26 09:02:14;;;;;;;6.63;2.00;;;11.90;99.90;;;;;;5080531;28;20032;-72
2022/10/26 09:04:43;;;;;;;4.82;1.42;;;12.10;99.90;;;;;;5080117;28;20047;-71
2022/10/26 09:07:23;;;;;;;6.60;1.85;;;12.20;99.90;;;;;;5080135;28;20315;-72
2022/10/26 09:10:22;;;;;;;3.40;1.30;;;12.30;99.90;;;;;;5080016;28;20025;-72
2022/10/26 09:13:06;;;;;;;6.68;1.58;;;12.50;99.90;;;;;;5080023;28;20020;-71
2022/10/26 09:16:02;;;;;;;7.55;1.55;;;12.60;99.90;;;;;;5079858;28;20031;-72
2022/10/26 09:18:53;;;;;;;6.90;1.75;;;12.70;99.90;;;;;;5061874;28;20021;-72
2022/10/26 09:21:21;;;;;;;4.75;1.80;;;12.90;99.90;;;;;;5078582;28;20032;-71
2022/10/26 09:24:08;;;;;;;5.35;1.90;;;13.00;99.90;;;;;;5061806;28;20035;-71
2022/10/26 09:26:44;;;;;;;;;;;13.10;99.90;;;;;;5080637;28;20285;-71
2022/10/26 09:29:13;;;;;;;10.93;2.35;;;13.30;99.90;;;;;;5079933;28;19908;-71
2022/10/26 09:31:49;;;;;;;5.75;1.52;;;13.40;99.90;;;;;;5079361;28;20036;-71
2022/10/26 09:34:35;;;;;;;6.10;1.30;;;13.50;99.90;;;;;;5079740;28;20016;-72
2022/10/26 09:37:16;;;;;;;4.75;2.35;;;13.60;99.90;;;;;;5080445;28;20300;-72
2022/10/26 09:40:14;;;;;;;5.60;1.60;;;13.70;99.90;;;;;;5079557;28;20024;-71
2022/10/26 09:42:58;;;;;;;8.23;1.85;;;13.80;99.90;;;;;;5079210;28;20093;-72
2022/10/26 09:45:42;;;;;;;6.72;2.90;;;13.90;99.90;;;;;;5079350;28;20051;-72
2022/10/26 09:48:35;;;;;;;4.03;1.25;;;14.00;99.90;;;;;;5078949;28;20016;-72
2022/10/26 09:51:03;;;;;;;5.68;1.50;;;14.00;99.90;;;;;;5079363;28;20285;-71
2022/10/26 09:53:31;;;;;;;7.00;1.85;;;14.10;99.90;;;;;;5061215;28;20036;-71
2022/10/26 09:56:11;;;;;;;2.15;1.15;;;14.20;99.90;;;;;;5078929;28;20036;-72
2022/10/26 09:59:03;;;;;;;4.43;1.35;;;14.20;99.90;;;;;;5079090;28;20051;-71
2022/10/26 10:01:35;;;;;;;2.42;1.02;;;14.20;99.90;;;;;;5077621;28;20078;-71
2022/10/26 10:04:27;;;;;;;4.03;0.98;;;14.30;99.90;;;;;;5078868;28;20024;-71
2022/10/26 10:07:03;;;;;;;10.68;1.70;;;14.30;99.90;;;;;;5061020;28;20056;-72
2022/10/26 10:09:31;;;;;;;7.05;1.48;;;14.40;99.90;;;;;;5078947;28;20020;-71
2022/10/26 10:12:02;;;;;;;3.65;1.35;;;14.60;99.90;;;;;;5079256;28;20035;-72
2022/10/26 10:14:32;;;;;;;4.07;1.50;;;14.70;99.90;;;;;;5079108;28;20016;-71
2022/10/26 10:17:16;;;;;;;6.57;1.35;;;14.90;99.90;;;;;;5078575;28;20023;-72
2022/10/26 10:19:44;;;;;;;7.32;1.50;;;15.00;99.90;;;;;;5078659;28;20017;-71
2022/10/26 10:22:26;;;;;;;5.68;1.30;;;15.10;99.90;;;;;;5061474;28;20023;-71
2022/10/26 10:25:01;;;;;;;5.45;1.00;;;15.30;99.90;;;;;;5078600;28;20105;-72
2022/10/26 10:27:32;;;;;;;5.85;2.17;;;15.30;99.90;;;;;;5078400;28;20027;-72
2022/10/26 10:30:23;;;;;;;3.40;1.23;;;15.40;99.90;;;;;;5078196;28;20024;-72
2022/10/26 10:33:12;;;;;;;8.23;2.05;;;15.40;99.90;;;;;;5063473;28;20103;-72
2022/10/26 10:35:50;;;;;;;5.85;1.73;;;15.40;99.90;;;;;;5078246;28;20027;-72
2022/10/26 10:38:20;;;;;;;10.02;2.53;;;15.40;99.90;;;;;;5078200;28;20346;-72
2022/10/26 10:40:54;;;;;;;9.80;1.83;;;15.40;99.90;;;;;;5078104;28;20074;-72
2022/10/26 10:43:22;;;;;;;4.00;1.05;;;15.40;99.90;;;;;;5078446;28;20040;-71
2022/10/26 10:45:56;;;;;;;5.45;1.80;;;15.30;99.90;;;;;;5060427;28;20025;-72
2022/10/26 10:48:30;;;;;;;5.25;1.25;;;15.30;99.90;;;;;;5077911;28;20075;-72
2022/10/26 10:51:11;;;;;;;2.72;1.05;;;15.30;99.90;;;;;;5060631;28;20081;-72
2022/10/26 10:53:48;;;;;;;5.65;1.23;;;15.20;99.90;;;;;;5077755;28;20372;-71
2022/10/26 10:56:31;;;;;;;5.50;1.50;;;15.10;99.90;;;;;;5077688;28;20052;-71
2022/10/26 10:59:32;;;;;;;6.15;1.25;;;15.10;99.90;;;;;;5078154;28;20328;-71
2022/10/26 11:02:18;;;;;;;3.60;1.38;;;15.00;99.90;;;;;;5078167;28;20031;-72
2022/10/26 11:05:12;;;;;;;4.88;1.10;;;15.00;99.90;;;;;;5078262;28;20056;-71
2022/10/26 11:07:52;;;;;;;2.90;1.35;;;15.00;99.90;;;;;;5077406;28;20032;-71
2022/10/26 11:10:22;;;;;;;7.22;1.35;;;15.00;99.90;;;;;;5077650;28;20123;-71
2022/10/26 11:12:57;;;;;;;7.68;1.70;;;14.90;99.90;;;;;;5077237;28;20070;-70
2022/10/26 11:15:30;;;;;;;4.35;1.58;;;14.90;99.90;;;;;;5077733;28;20095;-71
2022/10/26 11:18:14;;;;;;;6.68;2.70;;;15.00;99.90;;;;;;5077391;28;20107;-71
2022/10/26 11:21:06;;;;;;;4.50;1.08;;;15.00;99.90;;;;;;5077495;28;20017;-71
2022/10/26 11:23:43;;;;;;;5.00;1.20;;;15.10;99.90;;;;;;5077312;28;20066;-71
2022/10/26 11:26:30;;;;;;;2.45;1.23;;;15.10;99.90;;;;;;5077522;28;20046;-71
2022/10/26 11:29:27;;;;;;;3.35;1.10;;;15.20;99.90;;;;;;5077887;28;20305;-71
2022/10/26 11:32:01;;;;;;;4.28;1.60;;;15.30;99.90;;;;;;5055653;28;20036;-71
2022/10/26 11:35:16;;;;;;;5.28;1.40;;;15.30;99.90;;;;;;5077103;28;20428;-71
2022/10/26 11:38:26;;;;;;;4.88;2.03;;;15.40;99.90;;;;;;5015505;28;20030;-71
2022/10/26 11:41:05;;;;;;;4.95;1.35;;;15.50;99.90;;;;;;5060732;28;20039;-71
2022/10/26 11:43:43;;;;;;;9.52;1.70;;;15.60;99.90;;;;;;5076794;28;20328;-71
2022/10/26 11:46:28;;;;;;;4.38;1.15;;;15.60;99.90;;;;;;5076869;28;20085;-71
2022/10/26 11:49:13;;;;;;;4.60;1.80;;;15.60;99.90;;;;;;5076801;28;20474;-71
2022/10/26 11:51:49;;;;;;;6.28;1.25;;;15.70;99.90;;;;;;5077350;28;20340;-71
2022/10/26 11:54:46;;;;;;;3.33;0.80;;;15.70;99.90;;;;;;5075759;28;20427;-71
2022/10/26 11:57:16;;;;;;;3.90;1.38;;;15.70;99.90;;;;;;5076706;28;20379;-71
2022/10/26 11:59:53;;;;;;;2.92;1.20;;;15.70;99.90;;;;;;5076740;28;20020;-71
2022/10/26 12:02:25;;;;;;;3.97;1.00;;;15.80;99.90;;;;;;5076645;28;20028;-71
2022/10/26 12:05:01;;;;;;;6.63;1.52;;;15.80;99.90;;;;;;5077060;28;20063;-71
2022/10/26 12:07:45;;;;;;;5.75;1.13;;;15.80;99.90;;;;;;5076917;28;20017;-70
2022/10/26 12:10:35;;;;;;;3.08;1.20;;;15.80;99.90;;;;;;5077167;28;20408;-71
2022/10/26 12:13:15;;;;;;;9.55;1.10;;;15.70;99.90;;;;;;5077161;28;20074;-71
2022/10/26 12:15:54;;;;;;;3.58;1.00;;;15.70;99.90;;;;;;5076786;28;20297;-71
2022/10/26 12:18:40;;;;;;;6.13;0.88;;;15.70;99.90;;;;;;5076830;28;20032;-71
2022/10/26 12:21:09;;;;;;;6.82;1.35;;;15.80;99.90;;;;;;5076499;28;20033;-71
2022/10/26 12:23:55;;;;;;;1.98;0.98;;;15.90;99.90;;;;;;5076377;28;20032;-71
2022/10/26 12:26:23;;;;;;;7.55;2.00;;;16.00;99.90;;;;;;5076462;28;20363;-71
2022/10/26 12:29:03;;;;;;;2.35;1.20;;;16.10;99.90;;;;;;5076847;28;20017;-71
2022/10/26 12:31:37;;;;;;;3.45;1.20;;;16.20;99.90;;;;;;5076864;28;20309;-71
2022/10/26 12:34:22;;;;;;;4.38;1.20;;;16.30;99.90;;;;;;5077097;28;20044;-71
2022/10/26 12:37:22;;;;;;;3.10;1.30;;;16.30;99.90;;;;;;5076621;28;20087;-71
2022/10/26 12:39:49;;;;;;;10.02;1.10;;;16.50;99.90;;;;;;5058528;28;20025;-71
2022/10/26 12:42:16;;;;;;;4.72;1.30;;;16.60;99.90;;;;;;5076868;28;20501;-71
2022/10/26 12:44:47;;;;;;;6.30;1.67;;;16.70;99.90;;;;;;5076519;28;20050;-71
2022/10/26 12:47:30;;;;;;;5.95;0.90;;;16.80;99.90;;;;;;5058411;28;20074;-71
2022/10/26 12:50:07;;;;;;;4.30;1.20;;;16.80;99.90;;;;;;5076708;28;20048;-70
2022/10/26 12:52:56;;;;;;;3.90;1.10;;;16.80;99.90;;;;;;5076759;28;20408;-71
2022/10/26 12:55:45;;;;;;;3.97;1.08;;;16.80;99.90;;;;;;5076387;28;20055;-71
2022/10/26 12:58:37;;;;;;;2.72;1.10;;;16.80;99.90;;;;;;5076650;28;20024;-70
2022/10/26 13:01:15;;;;;;;4.72;1.23;;;16.70;99.90;;;;;;5076425;28;20021;-71
2022/10/26 13:04:13;;;;;;;4.55;1.83;;;16.60;99.90;;;;;;5076375;28;20028;-71
2022/10/26 13:07:14;;;;;;;5.32;1.60;;;16.60;99.90;;;;;;5076573;28;20086;-71
2022/10/26 13:09:57;;;;;;;9.02;2.22;;;16.60;99.90;;;;;;5075943;28;20021;-71
2022/10/26 13:12:27;;;;;;;10.07;3.22;;;16.60;99.90;;;;;;5075932;28;20045;-71
2022/10/26 13:15:18;;;;;;;4.53;1.65;;;16.60;99.90;;;;;;5076079;28;20024;-71
2022/10/26 13:18:00;;;;;;;3.72;1.38;;;16.70;99.90;;;;;;5076504;28;20024;-70
2022/10/26 13:20:30;;;;;;;8.18;1.85;;;16.80;99.90;;;;;;5076518;28;20025;-71
2022/10/26 13:22:57;;;;;;;7.30;1.80;;;16.90;99.90;;;;;;5076433;28;20045;-71
2022/10/26 13:25:29;;;;;;;5.63;1.23;;;17.00;99.90;;;;;;5076033;28;20060;-71
2022/10/26 13:28:06;;;;;;;6.40;1.85;;;17.10;99.90;;;;;;5075747;28;20021;-71